Time;durP1;ratioP1;P1;durP2;ratioP2;P2;SDS_P1;SDS_P2;PMS_P1;PMS_P2;Temp;Humidity;BMP_temperature;BMP_pressure;BME280_temperature;BME280_humidity;BME280_pressure;Samples;Min_cycle;Max_cycle;Signal;HPM_P1;HPM_P2
2021/06/12 00:00:10;;;;;;;12.02;8.02;;;;;;;-145.50;100.00;65435.88;4914060;29;20521;-45
2021/06/12 00:02:39;;;;;;;11.68;7.68;;;;;;;-145.50;100.00;65435.88;4918818;29;20091;-44
2021/06/12 00:05:08;;;;;;;13.63;9.02;;;;;;;-145.50;100.00;65435.88;4904122;29;20639;-45
2021/06/12 00:07:34;;;;;;;12.43;8.82;;;;;;;-145.50;100.00;65435.88;4908224;29;20078;-45
2021/06/12 00:10:06;;;;;;;14.80;9.18;;;;;;;-145.50;100.00;65435.88;4919305;29;20799;-48
2021/06/12 00:12:33;;;;;;;13.23;9.18;;;;;;;-145.50;100.00;65435.88;4910411;29;20130;-44
2021/06/12 00:14:59;;;;;;;12.75;9.18;;;;;;;-145.50;100.00;65435.88;4919734;29;20059;-46
2021/06/12 00:17:26;;;;;;;11.85;8.75;;;;;;;-145.50;100.00;65435.88;4918031;29;20147;-44
2021/06/12 00:19:52;;;;;;;13.40;10.13;;;;;;;-145.50;100.00;65435.88;4919029;29;20067;-46
2021/06/12 00:22:19;;;;;;;13.80;9.38;;;;;;;-145.50;100.00;65435.88;4906736;29;20834;-46
2021/06/12 00:24:45;;;;;;;13.43;10.05;;;;;;;-145.50;100.00;65435.88;4895769;29;20833;-45
2021/06/12 00:27:12;;;;;;;11.82;9.43;;;;;;;-145.50;100.00;65435.88;4900502;29;20087;-43
2021/06/12 00:29:38;;;;;;;13.50;10.18;;;;;;;-145.50;100.00;65435.88;4920089;29;20921;-44
2021/06/12 00:32:05;;;;;;;12.27;9.43;;;;;;;-145.50;100.00;65435.88;4919836;29;20510;-44
2021/06/12 00:34:32;;;;;;;14.45;9.88;;;;;;;-145.50;100.00;65435.88;4917943;29;20130;-45
2021/06/12 00:36:58;;;;;;;15.35;9.88;;;;;;;-145.50;100.00;65435.88;4923315;29;20087;-46
2021/06/12 00:39:25;;;;;;;14.88;10.32;;;;;;;-145.50;100.00;65435.88;4918862;29;20095;-46
2021/06/12 00:41:51;;;;;;;15.25;10.27;;;;;;;-145.50;100.00;65435.88;4925401;29;20075;-44
2021/06/12 00:44:18;;;;;;;14.57;10.20;;;;;;;-145.50;100.00;65435.88;4918293;29;20091;-47
2021/06/12 00:46:44;;;;;;;17.92;10.88;;;;;;;-145.50;100.00;65435.88;4921670;29;20142;-46
2021/06/12 00:49:11;;;;;;;12.88;10.07;;;;;;;-145.50;100.00;65435.88;4920373;29;20047;-45
2021/06/12 00:51:37;;;;;;;15.98;11.07;;;;;;;-145.50;100.00;65435.88;4919318;29;20074;-44
2021/06/12 00:54:04;;;;;;;16.52;9.57;;;;;;;-145.50;100.00;65435.88;4925064;29;20556;-45
2021/06/12 00:56:30;;;;;;;16.23;10.32;;;;;;;-145.50;100.00;65435.88;4899324;29;20093;-45
2021/06/12 00:58:57;;;;;;;16.10;10.43;;;;;;;-145.50;100.00;65435.88;4925944;29;20131;-44
2021/06/12 01:01:43;;;;;;;14.13;10.48;;;;;;;-145.50;100.00;65435.88;4906874;29;20086;-45
2021/06/12 01:04:10;;;;;;;15.48;10.13;;;;;;;-145.50;100.00;65435.88;4925173;29;20710;-44
2021/06/12 01:06:37;;;;;;;16.08;11.43;;;;;;;-145.50;100.00;65435.88;4923466;29;20051;-43
2021/06/12 01:09:03;;;;;;;17.35;11.23;;;;;;;-145.50;100.00;65435.88;4910168;29;20151;-42
2021/06/12 01:11:40;;;;;;;17.15;10.93;;;;;;;-145.50;100.00;65435.88;4928528;29;20086;-43
2021/06/12 01:14:19;;;;;;;19.73;11.00;;;;;;;-145.50;100.00;65435.88;4918337;29;20051;-43
2021/06/12 01:17:02;;;;;;;17.15;11.35;;;;;;;-145.50;100.00;65435.88;4923931;29;20587;-43
2021/06/12 01:19:37;;;;;;;16.48;11.13;;;;;;;-145.50;100.00;65435.88;4904821;29;20047;-42
2021/06/12 01:22:12;;;;;;;19.00;11.50;;;;;;;-145.50;100.00;65435.88;4928305;29;20052;-44
2021/06/12 01:24:59;;;;;;;15.90;9.85;;;;;;;-145.50;100.00;65435.88;4922039;29;20043;-42
2021/06/12 01:27:56;;;;;;;17.55;10.98;;;;;;;-145.50;100.00;65435.88;4898917;29;20055;-42
2021/06/12 01:30:24;;;;;;;;;;;;;;;-145.50;100.00;65435.88;4914550;29;20775;-42
2021/06/12 01:33:02;;;;;;;17.45;10.45;;;;;;;-145.50;100.00;65435.88;4925904;29;20674;-42
2021/06/12 01:35:37;;;;;;;16.50;10.27;;;;;;;-145.50;100.00;65435.88;4920521;29;20591;-42
2021/06/12 01:38:06;;;;;;;18.35;10.40;;;;;;;-145.50;100.00;65435.88;4927719;29;20901;-42
2021/06/12 01:40:35;;;;;;;;;;;;;;;-145.50;100.00;65435.88;4922707;29;20090;-44
2021/06/12 01:43:03;;;;;;;14.85;10.35;;;;;;;-145.50;100.00;65435.88;4912771;29;19926;-42
2021/06/12 01:45:31;;;;;;;17.10;10.60;;;;;;;-145.50;100.00;65435.88;4909614;29;20138;-43
2021/06/12 01:47:58;;;;;;;16.73;10.40;;;;;;;-145.50;100.00;65435.88;4926485;29;20490;-43
2021/06/12 01:50:26;;;;;;;18.58;10.52;;;;;;;-145.50;100.00;65435.88;4924863;29;20142;-42
2021/06/12 01:52:55;;;;;;;18.57;10.07;;;;;;;-145.50;100.00;65435.88;4921132;29;20088;-42
2021/06/12 01:55:25;;;;;;;21.33;11.20;;;;;;;-145.50;100.00;65435.88;4926747;29;20087;-42
2021/06/12 01:57:52;;;;;;;18.85;10.45;;;;;;;-145.50;100.00;65435.88;4915870;29;20764;-43
2021/06/12 02:00:19;;;;;;;19.33;10.30;;;;;;;-145.50;100.00;65435.88;4925640;29;20063;-44
2021/06/12 02:02:47;;;;;;;17.92;10.27;;;;;;;-145.50;100.00;65435.88;4924236;29;20437;-43
2021/06/12 02:05:18;;;;;;;19.88;10.50;;;;;;;-145.50;100.00;65435.88;4922584;29;20926;-43
2021/06/12 02:07:49;;;;;;;19.38;10.10;;;;;;;-145.50;100.00;65435.88;4924924;29;20158;-42
2021/06/12 02:10:26;;;;;;;15.98;9.65;;;;;;;-145.50;100.00;65435.88;4918632;29;20063;-42
2021/06/12 02:12:54;;;;;;;18.83;10.45;;;;;;;-145.50;100.00;65435.88;4920736;29;20060;-45
2021/06/12 02:15:24;;;;;;;17.20;10.20;;;;;;;-145.50;100.00;65435.88;4920130;29;20607;-42
2021/06/12 02:17:58;;;;;;;19.58;10.10;;;;;;;-145.50;100.00;65435.88;4926168;29;20150;-44
2021/06/12 02:20:25;;;;;;;19.83;10.30;;;;;;;-145.50;100.00;65435.88;4916500;29;20057;-43
2021/06/12 02:22:53;;;;;;;19.47;9.67;;;;;;;-145.50;100.00;65435.88;4900448;29;20171;-42
2021/06/12 02:25:20;;;;;;;18.17;10.50;;;;;;;-145.50;100.00;65435.88;4918368;29;20373;-43
2021/06/12 02:28:00;;;;;;;16.48;9.13;;;;;;;-145.50;100.00;65435.88;4924702;29;20164;-47
2021/06/12 02:30:29;;;;;;;18.33;9.40;;;;;;;-145.50;100.00;65435.88;4921712;29;20221;-47
2021/06/12 02:33:02;;;;;;;17.45;10.07;;;;;;;-145.50;100.00;65435.88;4891916;29;20151;-44
2021/06/12 02:35:29;;;;;;;18.15;9.63;;;;;;;-145.50;100.00;65435.88;4939797;29;20146;-45
2021/06/12 02:37:57;;;;;;;18.08;9.02;;;;;;;-145.50;100.00;65435.88;4895661;29;20048;-43
2021/06/12 02:40:25;;;;;;;19.05;9.50;;;;;;;-145.50;100.00;65435.88;4892676;29;20131;-44
2021/06/12 02:42:51;;;;;;;15.25;8.77;;;;;;;-145.50;100.00;65435.88;4901529;29;20060;-42
2021/06/12 02:45:18;;;;;;;18.50;9.65;;;;;;;-145.50;100.00;65435.88;4918991;29;20377;-42
2021/06/12 02:47:57;;;;;;;21.60;9.80;;;;;;;-145.50;100.00;65435.88;4924772;29;20146;-43
2021/06/12 02:50:29;;;;;;;19.40;10.10;;;;;;;-145.50;100.00;65435.88;4922671;29;20058;-43
2021/06/12 02:53:01;;;;;;;17.98;9.73;;;;;;;-145.50;100.00;65435.88;4920613;29;20086;-43
2021/06/12 02:55:29;;;;;;;19.50;9.75;;;;;;;-145.50;100.00;65435.88;4912301;29;20134;-43
2021/06/12 02:57:57;;;;;;;17.25;9.85;;;;;;;-145.50;100.00;65435.88;4927151;29;20172;-43
2021/06/12 03:00:25;;;;;;;18.35;9.57;;;;;;;-145.50;100.00;65435.88;4920495;29;20095;-42
2021/06/12 03:02:53;;;;;;;16.05;9.27;;;;;;;-145.50;100.00;65435.88;4920763;29;20063;-42
2021/06/12 03:05:23;;;;;;;19.80;9.80;;;;;;;-145.50;100.00;65435.88;4916531;29;20091;-42
2021/06/12 03:07:56;;;;;;;18.15;9.25;;;;;;;-145.50;100.00;65435.88;4926119;29;20058;-42
2021/06/12 03:10:29;;;;;;;18.60;9.75;;;;;;;-145.50;100.00;65435.88;4897779;29;20079;-43
2021/06/12 03:12:58;;;;;;;19.90;9.32;;;;;;;-145.50;100.00;65435.88;4907373;29;20091;-42
2021/06/12 03:15:26;;;;;;;;;;;;;;;-145.50;100.00;65435.88;4926758;29;20158;-43
2021/06/12 03:17:55;;;;;;;17.42;9.20;;;;;;;-145.50;100.00;65435.88;4916189;29;19977;-44
2021/06/12 03:20:23;;;;;;;18.08;8.77;;;;;;;-145.50;100.00;65435.88;4921927;29;20429;-43
2021/06/12 03:22:51;;;;;;;15.93;8.75;;;;;;;-145.50;100.00;65435.88;4920289;29;20142;-43
2021/06/12 03:25:21;;;;;;;17.58;9.02;;;;;;;-145.50;100.00;65435.88;4926374;29;20142;-42
2021/06/12 03:27:48;;;;;;;18.10;9.70;;;;;;;-145.50;100.00;65435.88;4911401;29;20167;-42
2021/06/12 03:30:15;;;;;;;16.60;8.73;;;;;;;-145.50;100.00;65435.88;4916997;29;20138;-42
2021/06/12 03:32:42;;;;;;;14.93;8.02;;;;;;;-145.50;100.00;65435.88;4901418;29;20535;-43
2021/06/12 03:35:10;;;;;;;19.50;9.05;;;;;;;-145.50;100.00;65435.88;4925361;29;20119;-46
2021/06/12 03:37:39;;;;;;;19.55;8.88;;;;;;;-145.50;100.00;65435.88;4923517;29;20139;-47
2021/06/12 03:40:07;;;;;;;15.15;8.65;;;;;;;-145.50;100.00;65435.88;4920613;29;21009;-45
2021/06/12 03:42:35;;;;;;;;;;;;;;;-145.50;100.00;65435.88;4919764;29;20154;-42
2021/06/12 03:45:07;;;;;;;14.93;8.27;;;;;;;-145.50;100.00;65435.88;4908049;29;20041;-42
2021/06/12 03:47:35;;;;;;;18.13;8.27;;;;;;;-145.50;100.00;65435.88;4924755;29;20055;-44
2021/06/12 03:50:05;;;;;;;14.85;7.82;;;;;;;-145.50;100.00;65435.88;4910840;29;20142;-42
2021/06/12 03:52:34;;;;;;;18.55;7.95;;;;;;;-145.50;100.00;65435.88;4923634;29;20156;-42
2021/06/12 03:55:04;;;;;;;13.50;7.68;;;;;;;-145.50;100.00;65435.88;4922653;29;20158;-42
2021/06/12 03:57:32;;;;;;;15.85;8.18;;;;;;;-145.50;100.00;65435.88;4920275;29;20119;-42
2021/06/12 03:59:59;;;;;;;19.55;8.30;;;;;;;-145.50;100.00;65435.88;4925108;29;20056;-43
2021/06/12 04:02:27;;;;;;;16.67;8.15;;;;;;;-145.50;100.00;65435.88;4917690;29;20059;-42
2021/06/12 04:04:56;;;;;;;18.55;7.70;;;;;;;-145.50;100.00;65435.88;4924614;29;20856;-42
2021/06/12 04:07:25;;;;;;;15.95;8.45;;;;;;;-145.50;100.00;65435.88;4916252;29;20087;-43
2021/06/12 04:09:51;;;;;;;17.15;8.32;;;;;;;-145.50;100.00;65435.88;4921046;29;20401;-42
2021/06/12 04:12:18;;;;;;;17.10;8.52;;;;;;;-145.50;100.00;65435.88;4920735;29;20111;-42
2021/06/12 04:14:45;;;;;;;18.45;8.60;;;;;;;-145.50;100.00;65435.88;4924073;29;20071;-42
2021/06/12 04:17:11;;;;;;;17.63;7.97;;;;;;;-145.50;100.00;65435.88;4925568;29;20192;-43
2021/06/12 04:19:39;;;;;;;13.55;8.27;;;;;;;-145.50;100.00;65435.88;4918966;29;20142;-43
2021/06/12 04:22:06;;;;;;;13.70;7.80;;;;;;;-145.50;100.00;65435.88;4918057;29;20793;-42
2021/06/12 04:24:36;;;;;;;14.15;7.47;;;;;;;-145.50;100.00;65435.88;4914983;29;20542;-42
2021/06/12 04:27:03;;;;;;;17.10;7.72;;;;;;;-145.50;100.00;65435.88;4925197;29;20690;-42
2021/06/12 04:29:29;;;;;;;15.88;7.50;;;;;;;-145.50;100.00;65435.88;4917614;29;20079;-43
2021/06/12 04:31:56;;;;;;;14.40;8.15;;;;;;;-145.50;100.00;65435.88;4928521;29;20142;-44
2021/06/12 04:34:23;;;;;;;15.73;8.00;;;;;;;-145.50;100.00;65435.88;4923608;29;20410;-42
2021/06/12 04:36:50;;;;;;;16.42;8.10;;;;;;;-145.50;100.00;65435.88;4899564;29;20154;-47
2021/06/12 04:39:16;;;;;;;16.95;8.52;;;;;;;-145.50;100.00;65435.88;4925879;29;20138;-43
2021/06/12 04:41:44;;;;;;;14.18;8.07;;;;;;;-145.50;100.00;65435.88;4920609;29;20138;-43
2021/06/12 04:44:10;;;;;;;16.95;8.77;;;;;;;-145.50;100.00;65435.88;4921649;29;20238;-42
2021/06/12 04:46:37;;;;;;;17.25;9.15;;;;;;;-145.50;100.00;65435.88;4914437;29;20659;-42
2021/06/12 04:49:04;;;;;;;16.15;8.88;;;;;;;-145.50;100.00;65435.88;4919013;29;20067;-42
2021/06/12 04:51:30;;;;;;;20.40;9.32;;;;;;;-145.50;100.00;65435.88;4925139;29;20139;-43
2021/06/12 04:53:56;;;;;;;20.35;9.68;;;;;;;-145.50;100.00;65435.88;4916007;29;20126;-43
2021/06/12 04:56:23;;;;;;;15.70;9.30;;;;;;;-145.50;100.00;65435.88;4900740;29;20091;-44
2021/06/12 04:58:49;;;;;;;22.83;10.40;;;;;;;-145.50;100.00;65435.88;4923488;29;20602;-43
2021/06/12 05:01:16;;;;;;;21.77;9.80;;;;;;;-145.50;100.00;65435.88;4928731;29;20130;-42
2021/06/12 05:03:42;;;;;;;18.15;10.27;;;;;;;-145.50;100.00;65435.88;4914942;29;20055;-43
2021/06/12 05:06:09;;;;;;;16.30;9.07;;;;;;;-145.50;100.00;65435.88;4921352;29;20138;-43
2021/06/12 05:08:36;;;;;;;21.50;10.23;;;;;;;-145.50;100.00;65435.88;4925724;29;20063;-42
2021/06/12 05:11:03;;;;;;;17.75;10.70;;;;;;;-145.50;100.00;65435.88;4925046;29;20179;-42
2021/06/12 05:13:32;;;;;;;18.33;10.60;;;;;;;-145.50;100.00;65435.88;4922996;29;20063;-43
2021/06/12 05:15:59;;;;;;;22.10;10.25;;;;;;;-145.50;100.00;65435.88;4909283;29;20501;-45
2021/06/12 05:18:32;;;;;;;23.17;12.20;;;;;;;-145.50;100.00;65435.88;4911136;29;20195;-42
2021/06/12 05:20:59;;;;;;;21.80;11.57;;;;;;;-145.50;100.00;65435.88;4914931;29;20075;-43
2021/06/12 05:23:28;;;;;;;19.20;12.10;;;;;;;-145.50;100.00;65435.88;4921753;29;20084;-42
2021/06/12 05:25:55;;;;;;;18.63;11.75;;;;;;;-145.50;100.00;65435.88;4921734;29;20102;-43
2021/06/12 05:28:22;;;;;;;18.92;12.07;;;;;;;-145.50;100.00;65435.88;4927247;29;20143;-44
2021/06/12 05:30:49;;;;;;;19.13;12.20;;;;;;;-145.50;100.00;65435.88;4924887;29;20689;-43
2021/06/12 05:33:15;;;;;;;23.27;12.38;;;;;;;-145.50;100.00;65435.88;4918092;29;20689;-43
2021/06/12 05:35:42;;;;;;;19.40;11.60;;;;;;;-145.50;100.00;65435.88;4924771;29;20090;-43
2021/06/12 05:38:08;;;;;;;26.52;12.68;;;;;;;-145.50;100.00;65435.88;4922044;29;20508;-43
2021/06/12 05:40:35;;;;;;;25.38;13.23;;;;;;;-145.50;100.00;65435.88;4920876;29;20929;-42
2021/06/12 05:43:01;;;;;;;22.67;13.13;;;;;;;-145.50;100.00;65435.88;4922677;29;20840;-44
2021/06/12 05:45:28;;;;;;;20.58;13.05;;;;;;;-145.50;100.00;65435.88;4923743;29;20087;-43
2021/06/12 05:47:54;;;;;;;19.13;13.68;;;;;;;-145.50;100.00;65435.88;4921726;29;20056;-42
2021/06/12 05:50:21;;;;;;;24.85;13.02;;;;;;;-145.50;100.00;65435.88;4921701;29;20475;-44
2021/06/12 05:52:47;;;;;;;24.25;13.85;;;;;;;-145.50;100.00;65435.88;4920183;29;20099;-43
2021/06/12 05:55:14;;;;;;;20.15;12.50;;;;;;;-145.50;100.00;65435.88;4921826;29;20222;-42
2021/06/12 05:57:41;;;;;;;22.77;13.38;;;;;;;-145.50;100.00;65435.88;4927123;29;20051;-43
2021/06/12 06:00:09;;;;;;;17.98;12.35;;;;;;;-145.50;100.00;65435.88;4917491;29;20467;-43
2021/06/12 06:02:42;;;;;;;19.25;12.27;;;;;;;-145.50;100.00;65435.88;4914921;29;20056;-43
2021/06/12 06:05:09;;;;;;;19.67;11.75;;;;;;;-145.50;100.00;65435.88;4928412;29;20058;-43
2021/06/12 06:07:35;;;;;;;20.17;11.98;;;;;;;-145.50;100.00;65435.88;4921639;29;20076;-45
2021/06/12 06:10:03;;;;;;;20.77;11.50;;;;;;;-145.50;100.00;65435.88;4922121;29;20600;-43
2021/06/12 06:12:30;;;;;;;22.40;12.13;;;;;;;-145.50;100.00;65435.88;4913082;29;20385;-42
2021/06/12 06:14:57;;;;;;;21.83;11.65;;;;;;;-145.50;100.00;65435.88;4923615;29;21003;-43
2021/06/12 06:17:23;;;;;;;22.27;11.35;;;;;;;-145.50;100.00;65435.88;4909707;28;20170;-43
2021/06/12 06:19:50;;;;;;;17.38;11.10;;;;;;;-145.50;100.00;65435.88;4920157;29;20138;-43
2021/06/12 06:22:16;;;;;;;17.92;10.57;;;;;;;-145.50;100.00;65435.88;4933343;29;20150;-43
2021/06/12 06:24:43;;;;;;;17.52;10.27;;;;;;;-145.50;100.00;65435.88;4927801;29;20135;-43
2021/06/12 06:27:10;;;;;;;17.88;9.63;;;;;;;-145.50;100.00;65435.88;4905238;29;20094;-42
2021/06/12 06:29:36;;;;;;;16.52;9.63;;;;;;;-145.50;100.00;65435.88;4909076;29;20166;-44
2021/06/12 06:32:04;;;;;;;15.57;9.88;;;;;;;-145.50;100.00;65435.88;4920599;29;20083;-43
2021/06/12 06:34:30;;;;;;;15.77;10.00;;;;;;;-145.50;100.00;65435.88;4915353;29;20142;-44
2021/06/12 06:36:57;;;;;;;16.02;9.60;;;;;;;-145.50;100.00;65435.88;4925122;29;20151;-42
2021/06/12 06:39:23;;;;;;;23.88;9.95;;;;;;;-145.50;100.00;65435.88;4921441;29;20063;-42
2021/06/12 06:41:50;;;;;;;20.88;9.63;;;;;;;-145.50;100.00;65435.88;4915529;29;20055;-43
2021/06/12 06:44:17;;;;;;;17.38;9.90;;;;;;;-145.50;100.00;65435.88;4922214;29;20067;-43
2021/06/12 06:46:43;;;;;;;15.27;8.15;;;;;;;-145.50;100.00;65435.88;4916526;29;20052;-42
2021/06/12 06:49:10;;;;;;;17.23;8.63;;;;;;;-145.50;100.00;65435.88;4929268;29;20110;-43
2021/06/12 06:51:37;;;;;;;16.70;8.93;;;;;;;-145.50;100.00;65435.88;4917523;29;20682;-43
2021/06/12 06:54:04;;;;;;;17.15;8.85;;;;;;;-145.50;100.00;65435.88;4903072;29;20051;-43
2021/06/12 06:56:30;;;;;;;17.50;8.40;;;;;;;-145.50;100.00;65435.88;4914750;29;20808;-44
2021/06/12 06:58:57;;;;;;;13.48;7.10;;;;;;;-145.50;100.00;65435.88;4917571;29;20054;-44
2021/06/12 07:01:24;;;;;;;15.93;7.10;;;;;;;-145.50;100.00;65435.88;4912496;29;20099;-43
2021/06/12 07:03:51;;;;;;;17.50;8.68;;;;;;;-145.50;100.00;65435.88;4908460;29;20130;-44
2021/06/12 07:06:17;;;;;;;15.27;8.32;;;;;;;-145.50;100.00;65435.88;4937833;29;20090;-43
2021/06/12 07:08:44;;;;;;;14.52;7.28;;;;;;;-145.50;100.00;65435.88;4919430;29;20058;-43
2021/06/12 07:11:11;;;;;;;17.60;7.63;;;;;;;-145.50;100.00;65435.88;4914904;29;20134;-43
2021/06/12 07:13:37;;;;;;;11.68;5.90;;;;;;;-145.50;100.00;65435.88;4906170;29;20136;-44
2021/06/12 07:16:05;;;;;;;14.88;6.40;;;;;;;-145.50;100.00;65435.88;4919640;29;20147;-43
2021/06/12 07:18:35;;;;;;;9.15;5.25;;;;;;;-145.50;100.00;65435.88;4911789;29;20064;-43
2021/06/12 07:21:02;;;;;;;11.32;6.00;;;;;;;-145.50;100.00;65435.88;4906442;29;20075;-43
2021/06/12 07:23:28;;;;;;;11.70;5.35;;;;;;;-145.50;100.00;65435.88;4922023;29;20166;-43
2021/06/12 07:25:55;;;;;;;14.05;4.25;;;;;;;-145.50;100.00;65435.88;4916065;29;20559;-44
2021/06/12 07:28:22;;;;;;;10.18;4.63;;;;;;;-145.50;100.00;65435.88;4917010;29;20130;-44
2021/06/12 07:30:48;;;;;;;9.80;5.22;;;;;;;-145.50;100.00;65435.88;4917709;29;20147;-44
2021/06/12 07:33:15;;;;;;;7.80;4.45;;;;;;;-145.50;100.00;65435.88;4909512;29;20139;-43
2021/06/12 07:35:43;;;;;;;10.82;4.40;;;;;;;-145.50;100.00;65435.88;4907151;29;20471;-45
2021/06/12 07:38:11;;;;;;;8.02;4.78;;;;;;;-145.50;100.00;65435.88;4921354;29;20255;-44
2021/06/12 07:40:38;;;;;;;7.63;3.93;;;;;;;-145.50;100.00;65435.88;4921566;29;20448;-48
2021/06/12 07:43:05;;;;;;;9.27;4.13;;;;;;;-145.50;100.00;65435.88;4904815;29;20579;-44
2021/06/12 07:45:33;;;;;;;12.77;4.65;;;;;;;-145.50;100.00;65435.88;4914371;29;20066;-43
2021/06/12 07:47:59;;;;;;;10.23;4.13;;;;;;;-145.50;100.00;65435.88;4900898;29;20063;-46
2021/06/12 07:50:27;;;;;;;9.85;4.25;;;;;;;-145.50;100.00;65435.88;4912898;29;20468;-45
2021/06/12 07:52:53;;;;;;;10.07;4.38;;;;;;;-145.50;100.00;65435.88;4918007;29;20174;-44
2021/06/12 07:55:20;;;;;;;9.77;4.15;;;;;;;-145.50;100.00;65435.88;4915032;29;20048;-44
2021/06/12 07:57:47;;;;;;;7.88;3.33;;;;;;;-145.50;100.00;65435.88;4923996;29;20593;-43
2021/06/12 08:00:14;;;;;;;12.07;3.88;;;;;;;-145.50;100.00;65435.88;4920667;29;20142;-44
2021/06/12 08:02:41;;;;;;;6.77;3.77;;;;;;;-145.50;100.00;65435.88;4920299;29;20158;-44
2021/06/12 08:05:08;;;;;;;7.90;3.92;;;;;;;-145.50;100.00;65435.88;4917275;29;20496;-43
2021/06/12 08:07:34;;;;;;;9.02;3.47;;;;;;;-145.50;100.00;65435.88;4911162;29;20052;-44
2021/06/12 08:10:03;;;;;;;10.32;3.70;;;;;;;-145.50;100.00;65435.88;4907929;29;20143;-44
2021/06/12 08:12:30;;;;;;;;;;;;;;;-145.50;100.00;65435.88;4910118;29;20084;-44
2021/06/12 08:14:57;;;;;;;7.67;3.93;;;;;;;-145.50;100.00;65435.88;4900814;29;20672;-44
2021/06/12 08:17:24;;;;;;;5.68;3.30;;;;;;;-145.50;100.00;65435.88;4917788;29;20318;-45
2021/06/12 08:19:50;;;;;;;8.55;3.47;;;;;;;-145.50;100.00;65435.88;4915241;29;20103;-43
2021/06/12 08:22:17;;;;;;;7.85;3.80;;;;;;;-145.50;100.00;65435.88;4912236;29;20154;-46
2021/06/12 08:24:44;;;;;;;10.00;3.53;;;;;;;-145.50;100.00;65435.88;4918813;29;20048;-43
2021/06/12 08:27:10;;;;;;;7.85;3.63;;;;;;;-145.50;100.00;65435.88;4920134;29;20279;-44
2021/06/12 08:29:37;;;;;;;6.63;3.58;;;;;;;-145.50;100.00;65435.88;4917658;29;20150;-43
2021/06/12 08:32:05;;;;;;;9.73;3.28;;;;;;;-145.50;100.00;65435.88;4909028;29;20053;-44
2021/06/12 08:34:31;;;;;;;7.93;3.33;;;;;;;-145.50;100.00;65435.88;4902026;29;20060;-44
2021/06/12 08:36:58;;;;;;;10.80;3.42;;;;;;;-145.50;100.00;65435.88;4924754;29;20480;-44
2021/06/12 08:39:24;;;;;;;11.57;3.80;;;;;;;-145.50;100.00;65435.88;4919465;29;20555;-44
2021/06/12 08:41:51;;;;;;;9.80;3.75;;;;;;;-145.50;100.00;65435.88;4909237;29;20088;-43
2021/06/12 08:44:22;;;;;;;9.32;3.42;;;;;;;-145.50;100.00;65435.88;4913536;29;20059;-45
2021/06/12 08:46:49;;;;;;;8.30;3.10;;;;;;;-145.50;100.00;65435.88;4924125;29;20134;-46
2021/06/12 08:49:16;;;;;;;7.15;3.40;;;;;;;-145.50;100.00;65435.88;4919108;29;20531;-43
2021/06/12 08:51:44;;;;;;;9.63;3.07;;;;;;;-145.50;100.00;65435.88;4914422;29;20150;-44
2021/06/12 08:54:14;;;;;;;;;;;;;;;-145.50;100.00;65435.88;4915963;29;20668;-46
2021/06/12 08:56:42;;;;;;;9.77;2.90;;;;;;;-145.50;100.00;65435.88;4918068;29;20782;-46
2021/06/12 08:59:09;;;;;;;9.48;3.25;;;;;;;-145.50;100.00;65435.88;4919633;29;20154;-43
2021/06/12 09:01:36;;;;;;;11.95;4.20;;;;;;;-145.50;100.00;65435.88;4916506;29;20110;-44
2021/06/12 09:04:03;;;;;;;10.13;4.13;;;;;;;-145.50;100.00;65435.88;4919250;29;20606;-44
2021/06/12 09:06:29;;;;;;;14.45;4.63;;;;;;;-145.50;100.00;65435.88;4928314;29;20175;-46
2021/06/12 09:09:02;;;;;;;8.38;3.72;;;;;;;-145.50;100.00;65435.88;4919836;29;20060;-43
2021/06/12 09:11:34;;;;;;;14.43;3.40;;;;;;;-145.50;100.00;65435.88;4895837;29;20063;-43
2021/06/12 09:14:02;;;;;;;6.60;3.20;;;;;;;-145.50;100.00;65435.88;4921320;29;20066;-45
2021/06/12 09:16:39;;;;;;;10.50;3.63;;;;;;;-145.50;100.00;65435.88;4922194;29;20139;-45
2021/06/12 09:19:11;;;;;;;8.70;3.33;;;;;;;-145.50;100.00;65435.88;4925569;29;20079;-45
2021/06/12 09:21:41;;;;;;;8.60;3.53;;;;;;;-145.50;100.00;65435.88;4938451;29;20138;-46
2021/06/12 09:24:31;;;;;;;11.27;3.40;;;;;;;-145.50;100.00;65435.88;4917466;29;20574;-46
2021/06/12 09:27:02;;;;;;;10.13;3.20;;;;;;;-145.50;100.00;65435.88;4925227;29;20079;-43
2021/06/12 09:29:48;;;;;;;5.68;3.40;;;;;;;-145.50;100.00;65435.88;4918269;29;20142;-49
2021/06/12 09:32:23;;;;;;;7.32;3.05;;;;;;;-145.50;100.00;65435.88;4927849;29;20098;-43
2021/06/12 09:34:55;;;;;;;9.75;3.38;;;;;;;-145.50;100.00;65435.88;4905786;29;20551;-45
2021/06/12 09:37:25;;;;;;;8.52;3.40;;;;;;;-145.50;100.00;65435.88;4918749;29;20499;-43
2021/06/12 09:40:01;;;;;;;10.07;3.75;;;;;;;-145.50;100.00;65435.88;4886155;29;20931;-49
2021/06/12 09:42:45;;;;;;;10.82;3.45;;;;;;;-145.50;100.00;65435.88;4919046;29;20539;-46
2021/06/12 09:45:13;;;;;;;9.43;3.72;;;;;;;-145.50;100.00;65435.88;4922689;29;20062;-45
2021/06/12 09:47:40;;;;;;;10.43;3.72;;;;;;;-145.50;100.00;65435.88;4930807;29;20086;-43
2021/06/12 09:50:09;;;;;;;9.13;3.90;;;;;;;-145.50;100.00;65435.88;4924657;29;20119;-45
2021/06/12 09:52:41;;;;;;;11.25;4.07;;;;;;;-145.50;100.00;65435.88;4912616;29;20769;-43
2021/06/12 09:55:09;;;;;;;9.20;4.10;;;;;;;-145.50;100.00;65435.88;4901484;29;20499;-44
2021/06/12 09:57:47;;;;;;;7.40;3.92;;;;;;;-145.50;100.00;65435.88;4921502;29;20146;-43
2021/06/12 10:00:14;;;;;;;12.80;4.45;;;;;;;-145.50;100.00;65435.88;4919042;29;20083;-45
2021/06/12 10:02:44;;;;;;;9.20;4.53;;;;;;;-145.50;100.00;65435.88;4914971;29;20146;-43
2021/06/12 10:05:14;;;;;;;8.80;3.65;;;;;;;-145.50;100.00;65435.88;4924485;29;20070;-44
2021/06/12 10:07:42;;;;;;;8.88;3.58;;;;;;;-145.50;100.00;65435.88;4918689;29;20143;-43
2021/06/12 10:10:12;;;;;;;;;;;;;;;-145.50;100.00;65435.88;4928141;29;20548;-45
2021/06/12 10:12:40;;;;;;;9.27;3.90;;;;;;;-145.50;100.00;65435.88;4908526;29;20071;-47
2021/06/12 10:15:10;;;;;;;10.15;3.80;;;;;;;-145.50;100.00;65435.88;4921650;29;20063;-44
2021/06/12 10:17:48;;;;;;;8.43;3.67;;;;;;;-145.50;100.00;65435.88;4925607;29;20083;-45
2021/06/12 10:20:21;;;;;;;7.43;3.65;;;;;;;-145.50;100.00;65435.88;4906164;29;20158;-44
2021/06/12 10:22:52;;;;;;;8.70;4.03;;;;;;;-145.50;100.00;65435.88;4921821;29;20159;-44
2021/06/12 10:25:21;;;;;;;11.48;4.43;;;;;;;-145.50;100.00;65435.88;4921014;29;20147;-45
2021/06/12 10:27:48;;;;;;;11.98;3.92;;;;;;;-145.50;100.00;65435.88;4922652;29;20144;-45
2021/06/12 10:30:19;;;;;;;8.02;3.60;;;;;;;-145.50;100.00;65435.88;4916291;29;20156;-43
2021/06/12 10:32:50;;;;;;;10.18;4.03;;;;;;;-145.50;100.00;65435.88;4896783;29;20083;-44
2021/06/12 10:35:19;;;;;;;11.45;3.97;;;;;;;-145.50;100.00;65435.88;4905119;29;20142;-44
2021/06/12 10:38:01;;;;;;;10.45;3.78;;;;;;;-145.50;100.00;65435.88;4926875;29;20496;-43
2021/06/12 10:40:39;;;;;;;8.35;3.72;;;;;;;-145.50;100.00;65435.88;4921910;29;20083;-45
2021/06/12 10:43:14;;;;;;;10.40;3.78;;;;;;;-145.50;100.00;65435.88;4913081;29;20115;-44
2021/06/12 10:45:42;;;;;;;9.35;3.67;;;;;;;-145.50;100.00;65435.88;4919708;29;20492;-44
2021/06/12 10:48:09;;;;;;;6.43;3.30;;;;;;;-145.50;100.00;65435.88;4917714;29;20082;-44
2021/06/12 10:50:42;;;;;;;11.13;3.30;;;;;;;-145.50;100.00;65435.88;4922445;29;20139;-44
2021/06/12 10:53:33;;;;;;;10.63;3.17;;;;;;;-145.50;100.00;65435.88;4918101;29;20878;-48
2021/06/12 10:56:05;;;;;;;9.05;3.70;;;;;;;-145.50;100.00;65435.88;4927890;29;20404;-44
2021/06/12 10:58:42;;;;;;;8.10;3.38;;;;;;;-145.50;100.00;65435.88;4903006;29;20052;-45
2021/06/12 11:01:12;;;;;;;8.07;3.00;;;;;;;-145.50;100.00;65435.88;4902548;29;20143;-44
2021/06/12 11:06:33;;;;;;;14.30;3.80;;;;;;;-145.50;100.00;65435.88;4938215;29;20837;-46
2021/06/12 11:09:18;;;;;;;10.60;3.78;;;;;;;-145.50;100.00;65435.88;4919847;29;20142;-44
2021/06/12 11:11:52;;;;;;;9.40;3.55;;;;;;;-145.50;100.00;65435.88;4925801;29;20091;-44